EZY54GE EGGW-LGKR
Flight info
| Callsign | EZY54GE |
|---|---|
| Flight time | 2h 46m |
| Altitude | 35000 |
| Route | MATCH Q295 BRAIN P44 DAGGA M85 ITVIP L10 DVR UL9 KONAN DCT KOK UL607 REMBA DCT LIRSU DCT KRH DCT BATUB DCT TIRUL M738 NATAG DCT LORLO DCT BORMI DCT AKADO DCT IXONA DCT AMUGO DCT VAKSU DCT RODON DCT LIMJA N732 PITAS |
| Aircraft | A320/M-SDE3FGHIRWY/LB1 |
Departure
| Time | 2026-05-05 09:42 |
|---|---|
| Airport | London Luton Airport (EGGW) |
Arrival
| Time | 2026-05-05 12:28 |
|---|---|
| Airport | Corfu Ioannis Kapodistrias International Airport (LGKR) |
| Time | Latitude | Longitude | Altitude | Speed | Heading |
|---|---|---|---|---|---|
| 2026-05-05 09:21 | 51.88150 | -0.37429 | 517 ft | 0 kts | 161° |
| 2026-05-05 09:34 | 51.88170 | -0.37440 | 516 ft | 4 kts | 161° |
| 2026-05-05 09:34 | 51.88189 | -0.37450 | 516 ft | 4 kts | 141° |
| 2026-05-05 09:35 | 51.88200 | -0.37482 | 516 ft | 2 kts | 104° |
| 2026-05-05 09:35 | 51.88205 | -0.37508 | 516 ft | 0 kts | 104° |
| 2026-05-05 09:37 | 51.88201 | -0.37475 | 516 ft | 4 kts | 94° |
| 2026-05-05 09:37 | 51.88210 | -0.37403 | 516 ft | 6 kts | 77° |
| 2026-05-05 09:37 | 51.88226 | -0.37330 | 516 ft | 8 kts | 65° |
| 2026-05-05 09:38 | 51.88219 | -0.37250 | 517 ft | 7 kts | 133° |
| 2026-05-05 09:38 | 51.88135 | -0.37195 | 512 ft | 20 kts | 162° |
| 2026-05-05 09:38 | 51.87989 | -0.37116 | 508 ft | 23 kts | 161° |
| 2026-05-05 09:38 | 51.87839 | -0.37035 | 512 ft | 22 kts | 162° |
| 2026-05-05 09:39 | 51.87708 | -0.36967 | 521 ft | 17 kts | 162° |
| 2026-05-05 09:39 | 51.87641 | -0.36962 | 524 ft | 7 kts | 207° |
| 2026-05-05 09:39 | 51.87613 | -0.37068 | 522 ft | 16 kts | 255° |
| 2026-05-05 09:39 | 51.87576 | -0.37290 | 522 ft | 22 kts | 261° |
| 2026-05-05 09:40 | 51.87561 | -0.37450 | 522 ft | 12 kts | 215° |
| 2026-05-05 09:40 | 51.87489 | -0.37623 | 523 ft | 25 kts | 255° |
| 2026-05-05 09:40 | 51.87438 | -0.37923 | 523 ft | 28 kts | 254° |
| 2026-05-05 09:40 | 51.87318 | -0.38108 | 522 ft | 23 kts | 205° |
| 2026-05-05 09:41 | 51.87250 | -0.38063 | 524 ft | 11 kts | 75° |
| 2026-05-05 09:41 | 51.87291 | -0.37841 | 524 ft | 47 kts | 72° |
| 2026-05-05 09:41 | 51.87449 | -0.36929 | 523 ft | 117 kts | 75° |
| 2026-05-05 09:41 | 51.87710 | -0.35417 | 779 ft | 150 kts | 73° |
| 2026-05-05 09:42 | 51.88006 | -0.33745 | 1516 ft | 159 kts | 71° |
| 2026-05-05 09:42 | 51.88317 | -0.32016 | 2169 ft | 162 kts | 71° |
| 2026-05-05 09:42 | 51.88642 | -0.30146 | 2439 ft | 184 kts | 72° |
| 2026-05-05 09:42 | 51.89006 | -0.28024 | 2661 ft | 206 kts | 73° |
| 2026-05-05 09:43 | 51.89403 | -0.25689 | 2971 ft | 227 kts | 74° |
| 2026-05-05 09:43 | 51.89505 | -0.23039 | 3404 ft | 249 kts | 103° |
| 2026-05-05 09:43 | 51.88583 | -0.20634 | 4167 ft | 261 kts | 139° |
| 2026-05-05 09:43 | 51.86989 | -0.19166 | 5001 ft | 267 kts | 153° |
| 2026-05-05 09:44 | 51.85288 | -0.17917 | 5814 ft | 271 kts | 155° |
| 2026-05-05 09:44 | 51.83542 | -0.16703 | 6623 ft | 275 kts | 156° |
| 2026-05-05 09:44 | 51.81771 | -0.15482 | 7385 ft | 279 kts | 156° |
| 2026-05-05 09:44 | 51.79980 | -0.14232 | 8154 ft | 283 kts | 156° |
| 2026-05-05 09:45 | 51.78164 | -0.12950 | 8899 ft | 287 kts | 155° |
| 2026-05-05 09:45 | 51.76493 | -0.11192 | 9630 ft | 291 kts | 132° |
| 2026-05-05 09:45 | 51.75492 | -0.08370 | 10282 ft | 293 kts | 103° |
| 2026-05-05 09:45 | 51.75391 | -0.05085 | 10780 ft | 303 kts | 83° |
| 2026-05-05 09:46 | 51.75647 | -0.01583 | 10954 ft | 326 kts | 81° |
| 2026-05-05 09:46 | 51.75970 | 0.02168 | 11088 ft | 348 kts | 81° |
| 2026-05-05 09:46 | 51.76332 | 0.06155 | 11240 ft | 368 kts | 81° |
| 2026-05-05 09:46 | 51.76704 | 0.10298 | 11701 ft | 377 kts | 81° |
| 2026-05-05 09:47 | 51.77068 | 0.14511 | 12319 ft | 381 kts | 82° |
| 2026-05-05 09:47 | 51.77416 | 0.18716 | 12948 ft | 384 kts | 82° |
| 2026-05-05 09:47 | 51.77712 | 0.23020 | 13561 ft | 388 kts | 88° |
| 2026-05-05 09:47 | 51.77386 | 0.27346 | 14104 ft | 392 kts | 106° |
| 2026-05-05 09:48 | 51.76249 | 0.31411 | 14642 ft | 395 kts | 120° |
| 2026-05-05 09:48 | 51.74889 | 0.35207 | 15171 ft | 397 kts | 120° |
| 2026-05-05 09:48 | 51.73483 | 0.39054 | 15695 ft | 399 kts | 121° |
| 2026-05-05 09:48 | 51.72060 | 0.42923 | 16212 ft | 402 kts | 121° |
| 2026-05-05 09:49 | 51.70629 | 0.46816 | 16723 ft | 405 kts | 121° |
| 2026-05-05 09:49 | 51.69191 | 0.50737 | 17238 ft | 408 kts | 121° |
| 2026-05-05 09:49 | 51.67747 | 0.54685 | 17754 ft | 410 kts | 121° |
| 2026-05-05 09:49 | 51.66295 | 0.58657 | 18239 ft | 413 kts | 121° |
| 2026-05-05 09:50 | 51.64830 | 0.62650 | 18670 ft | 415 kts | 121° |
| 2026-05-05 09:50 | 51.63355 | 0.66663 | 19106 ft | 417 kts | 121° |
| 2026-05-05 09:50 | 51.61869 | 0.70698 | 19539 ft | 419 kts | 122° |
| 2026-05-05 09:50 | 51.60382 | 0.74731 | 19977 ft | 421 kts | 122° |
| 2026-05-05 09:51 | 51.58883 | 0.78797 | 20406 ft | 423 kts | 122° |
| 2026-05-05 09:51 | 51.57384 | 0.82865 | 20826 ft | 425 kts | 122° |
| 2026-05-05 09:51 | 51.55874 | 0.86960 | 21222 ft | 427 kts | 122° |
| 2026-05-05 09:51 | 51.54351 | 0.91080 | 21615 ft | 429 kts | 122° |
| 2026-05-05 09:52 | 51.52819 | 0.95202 | 22000 ft | 431 kts | 122° |
| 2026-05-05 09:52 | 51.51277 | 0.99340 | 22365 ft | 433 kts | 122° |
| 2026-05-05 09:52 | 51.49749 | 1.03440 | 22730 ft | 435 kts | 122° |
| 2026-05-05 09:52 | 51.48192 | 1.07612 | 23105 ft | 437 kts | 122° |
| 2026-05-05 09:53 | 51.46628 | 1.11798 | 23482 ft | 438 kts | 122° |
| 2026-05-05 09:53 | 51.45052 | 1.16009 | 23785 ft | 440 kts | 122° |
| 2026-05-05 09:53 | 51.43470 | 1.20229 | 24077 ft | 442 kts | 122° |
| 2026-05-05 09:53 | 51.41881 | 1.24464 | 24362 ft | 445 kts | 122° |
| 2026-05-05 09:54 | 51.40283 | 1.28717 | 24638 ft | 447 kts | 123° |
| 2026-05-05 09:54 | 51.38676 | 1.32986 | 24898 ft | 449 kts | 123° |
| 2026-05-05 09:54 | 51.37056 | 1.37280 | 25156 ft | 451 kts | 123° |
| 2026-05-05 09:54 | 51.35430 | 1.41581 | 25409 ft | 453 kts | 123° |
| 2026-05-05 09:55 | 51.33795 | 1.45896 | 25664 ft | 455 kts | 123° |
| 2026-05-05 09:55 | 51.32152 | 1.50228 | 25918 ft | 457 kts | 123° |
| 2026-05-05 09:55 | 51.30499 | 1.54575 | 26159 ft | 459 kts | 123° |
| 2026-05-05 09:55 | 51.28835 | 1.58947 | 26395 ft | 460 kts | 123° |
| 2026-05-05 09:56 | 51.27167 | 1.63322 | 26665 ft | 461 kts | 123° |
| 2026-05-05 09:56 | 51.25521 | 1.67634 | 27025 ft | 460 kts | 123° |
| 2026-05-05 09:56 | 51.23856 | 1.71993 | 27381 ft | 460 kts | 123° |
| 2026-05-05 09:56 | 51.22187 | 1.76351 | 27742 ft | 459 kts | 123° |
| 2026-05-05 09:57 | 51.20526 | 1.80679 | 28104 ft | 458 kts | 123° |
| 2026-05-05 09:57 | 51.18862 | 1.85007 | 28455 ft | 457 kts | 124° |
| 2026-05-05 09:57 | 51.17196 | 1.89326 | 28821 ft | 457 kts | 124° |
| 2026-05-05 09:57 | 51.15538 | 1.93629 | 29175 ft | 456 kts | 123° |
| 2026-05-05 09:58 | 51.14111 | 1.98163 | 29520 ft | 458 kts | 114° |
| 2026-05-05 09:58 | 51.13141 | 2.02993 | 29867 ft | 461 kts | 105° |
| 2026-05-05 09:58 | 51.12646 | 2.08049 | 30182 ft | 463 kts | 97° |
| 2026-05-05 09:58 | 51.12386 | 2.13143 | 30456 ft | 462 kts | 97° |
| 2026-05-05 09:59 | 51.12116 | 2.18244 | 30731 ft | 463 kts | 97° |
| 2026-05-05 09:59 | 51.11838 | 2.23345 | 30998 ft | 463 kts | 97° |
| 2026-05-05 09:59 | 51.11555 | 2.28444 | 31268 ft | 463 kts | 97° |
| 2026-05-05 09:59 | 51.11269 | 2.33546 | 31534 ft | 463 kts | 97° |
| 2026-05-05 10:00 | 51.10983 | 2.38647 | 31789 ft | 463 kts | 97° |
| 2026-05-05 10:00 | 51.10700 | 2.43749 | 32061 ft | 463 kts | 97° |
| 2026-05-05 10:00 | 51.10416 | 2.48851 | 32334 ft | 463 kts | 97° |
| 2026-05-05 10:00 | 51.10127 | 2.53941 | 32599 ft | 463 kts | 98° |
| 2026-05-05 10:01 | 51.09834 | 2.59051 | 32869 ft | 463 kts | 98° |
| 2026-05-05 10:01 | 51.09495 | 2.64137 | 33136 ft | 461 kts | 102° |
| 2026-05-05 10:01 | 51.08782 | 2.69086 | 33405 ft | 458 kts | 109° |
| 2026-05-05 10:01 | 51.07893 | 2.73948 | 33692 ft | 458 kts | 109° |
| 2026-05-05 10:02 | 51.07009 | 2.78805 | 33974 ft | 457 kts | 109° |
| 2026-05-05 10:02 | 51.06125 | 2.83671 | 34212 ft | 457 kts | 109° |
| 2026-05-05 10:02 | 51.05543 | 2.86875 | 34367 ft | 456 kts | 109° |
| 2026-05-05 10:02 | 51.04660 | 2.91732 | 34593 ft | 456 kts | 109° |
| 2026-05-05 10:03 | 51.03777 | 2.96575 | 34813 ft | 456 kts | 109° |
| 2026-05-05 10:03 | 51.02603 | 3.02995 | 34932 ft | 458 kts | 109° |
| 2026-05-05 10:03 | 51.01101 | 3.11147 | 34932 ft | 460 kts | 109° |
| 2026-05-05 10:04 | 50.99297 | 3.20893 | 34930 ft | 460 kts | 110° |
| 2026-05-05 10:04 | 50.97486 | 3.30618 | 34923 ft | 459 kts | 110° |
| 2026-05-05 10:05 | 50.95670 | 3.40326 | 34920 ft | 459 kts | 110° |
| 2026-05-05 10:05 | 50.93862 | 3.49954 | 34928 ft | 459 kts | 110° |
| 2026-05-05 10:06 | 50.92032 | 3.59645 | 34918 ft | 459 kts | 110° |
| 2026-05-05 10:06 | 50.90186 | 3.69319 | 34916 ft | 458 kts | 110° |
| 2026-05-05 10:07 | 50.88321 | 3.78978 | 34925 ft | 458 kts | 111° |
| 2026-05-05 10:07 | 50.86454 | 3.88612 | 34913 ft | 458 kts | 111° |
| 2026-05-05 10:08 | 50.84580 | 3.98251 | 34915 ft | 458 kts | 111° |
| 2026-05-05 10:08 | 50.82698 | 4.07876 | 34920 ft | 457 kts | 111° |
| 2026-05-05 10:09 | 50.80810 | 4.17472 | 34923 ft | 457 kts | 111° |
| 2026-05-05 10:09 | 50.78918 | 4.27056 | 34928 ft | 456 kts | 111° |
| 2026-05-05 10:10 | 50.77023 | 4.36621 | 34927 ft | 456 kts | 112° |
| 2026-05-05 10:10 | 50.75118 | 4.46170 | 34930 ft | 455 kts | 112° |
| 2026-05-05 10:11 | 50.73199 | 4.55698 | 34926 ft | 455 kts | 112° |
| 2026-05-05 10:11 | 50.71298 | 4.65164 | 34921 ft | 455 kts | 112° |
| 2026-05-05 10:12 | 50.69441 | 4.74782 | 34916 ft | 455 kts | 111° |
| 2026-05-05 10:12 | 50.67621 | 4.84271 | 34912 ft | 455 kts | 112° |
| 2026-05-05 10:13 | 50.65568 | 4.93654 | 34904 ft | 449 kts | 121° |
| 2026-05-05 10:13 | 50.62880 | 5.02527 | 34898 ft | 448 kts | 121° |
| 2026-05-05 10:14 | 50.60204 | 5.11391 | 34894 ft | 448 kts | 121° |
| 2026-05-05 10:14 | 50.57538 | 5.20250 | 34894 ft | 448 kts | 121° |
| 2026-05-05 10:15 | 50.54858 | 5.29087 | 34893 ft | 447 kts | 121° |
| 2026-05-05 10:15 | 50.52169 | 5.37905 | 34890 ft | 447 kts | 121° |
| 2026-05-05 10:16 | 50.49472 | 5.46728 | 34887 ft | 447 kts | 121° |
| 2026-05-05 10:16 | 50.46778 | 5.55532 | 34881 ft | 447 kts | 121° |
| 2026-05-05 10:17 | 50.44075 | 5.64315 | 34873 ft | 447 kts | 121° |
| 2026-05-05 10:17 | 50.41357 | 5.73096 | 34868 ft | 448 kts | 121° |
| 2026-05-05 10:18 | 50.38630 | 5.81876 | 34857 ft | 448 kts | 121° |
| 2026-05-05 10:18 | 50.35902 | 5.90661 | 34856 ft | 448 kts | 121° |
| 2026-05-05 10:19 | 50.33182 | 5.99366 | 34845 ft | 448 kts | 122° |
| 2026-05-05 10:19 | 50.30427 | 6.08130 | 34845 ft | 449 kts | 122° |
| 2026-05-05 10:20 | 50.27668 | 6.16899 | 34843 ft | 450 kts | 122° |
| 2026-05-05 10:20 | 50.24894 | 6.25689 | 34835 ft | 450 kts | 122° |
| 2026-05-05 10:21 | 50.22118 | 6.34469 | 34830 ft | 451 kts | 122° |
| 2026-05-05 10:21 | 50.19316 | 6.43218 | 34832 ft | 449 kts | 125° |
| 2026-05-05 10:22 | 50.15663 | 6.50925 | 34828 ft | 440 kts | 136° |
| 2026-05-05 10:22 | 50.11701 | 6.58237 | 34828 ft | 441 kts | 136° |
| 2026-05-05 10:23 | 50.07749 | 6.65547 | 34843 ft | 441 kts | 136° |
| 2026-05-05 10:23 | 50.03792 | 6.72851 | 34845 ft | 441 kts | 136° |
| 2026-05-05 10:24 | 49.99833 | 6.80142 | 34848 ft | 441 kts | 136° |
| 2026-05-05 10:24 | 49.95870 | 6.87410 | 34851 ft | 440 kts | 136° |
| 2026-05-05 10:25 | 49.91902 | 6.94661 | 34855 ft | 440 kts | 136° |
| 2026-05-05 10:25 | 49.87935 | 7.01879 | 34882 ft | 439 kts | 136° |
| 2026-05-05 10:26 | 49.83969 | 7.09079 | 34887 ft | 439 kts | 136° |
| 2026-05-05 10:26 | 49.80009 | 7.16261 | 34893 ft | 439 kts | 136° |
| 2026-05-05 10:27 | 49.76044 | 7.23433 | 34889 ft | 438 kts | 136° |
| 2026-05-05 10:27 | 49.72112 | 7.30542 | 34884 ft | 437 kts | 136° |
| 2026-05-05 10:28 | 49.68147 | 7.37666 | 34877 ft | 437 kts | 136° |
| 2026-05-05 10:28 | 49.64181 | 7.44770 | 34869 ft | 437 kts | 136° |
| 2026-05-05 10:29 | 49.60214 | 7.51860 | 34868 ft | 436 kts | 136° |
| 2026-05-05 10:29 | 49.56249 | 7.58916 | 34871 ft | 436 kts | 136° |
| 2026-05-05 10:30 | 49.52284 | 7.65967 | 34868 ft | 435 kts | 136° |
| 2026-05-05 10:30 | 49.48318 | 7.73002 | 34867 ft | 435 kts | 137° |
| 2026-05-05 10:31 | 49.44347 | 7.80021 | 34864 ft | 435 kts | 137° |
| 2026-05-05 10:31 | 49.40378 | 7.87035 | 34859 ft | 435 kts | 137° |
| 2026-05-05 10:32 | 49.36402 | 7.94036 | 34855 ft | 435 kts | 137° |
| 2026-05-05 10:32 | 49.32410 | 8.01023 | 34857 ft | 435 kts | 137° |
| 2026-05-05 10:33 | 49.28423 | 8.07989 | 34857 ft | 435 kts | 137° |
| 2026-05-05 10:33 | 49.24437 | 8.14958 | 34855 ft | 435 kts | 137° |
| 2026-05-05 10:34 | 49.20446 | 8.21913 | 34857 ft | 434 kts | 137° |
| 2026-05-05 10:34 | 49.16452 | 8.28844 | 34860 ft | 434 kts | 137° |
| 2026-05-05 10:35 | 49.12456 | 8.35759 | 34860 ft | 434 kts | 137° |
| 2026-05-05 10:35 | 49.08462 | 8.42660 | 34855 ft | 434 kts | 137° |
| 2026-05-05 10:36 | 49.04460 | 8.49549 | 34851 ft | 434 kts | 137° |
| 2026-05-05 10:36 | 49.00441 | 8.56413 | 34852 ft | 432 kts | 139° |
| 2026-05-05 10:37 | 48.95839 | 8.61987 | 34847 ft | 423 kts | 151° |
| 2026-05-05 10:37 | 48.90946 | 8.66985 | 34845 ft | 424 kts | 150° |
| 2026-05-05 10:38 | 48.86062 | 8.71985 | 34845 ft | 424 kts | 150° |
| 2026-05-05 10:38 | 48.81170 | 8.76993 | 34844 ft | 424 kts | 150° |
| 2026-05-05 10:39 | 48.76273 | 8.81986 | 34847 ft | 424 kts | 150° |
| 2026-05-05 10:39 | 48.71380 | 8.86966 | 34851 ft | 424 kts | 150° |
| 2026-05-05 10:40 | 48.66489 | 8.91944 | 34847 ft | 423 kts | 150° |
| 2026-05-05 10:40 | 48.61585 | 8.96908 | 34847 ft | 423 kts | 150° |
| 2026-05-05 10:41 | 48.56689 | 9.01847 | 34847 ft | 424 kts | 150° |
| 2026-05-05 10:41 | 48.51785 | 9.06793 | 34850 ft | 424 kts | 150° |
| 2026-05-05 10:42 | 48.44427 | 9.14182 | 34849 ft | 424 kts | 150° |
| 2026-05-05 10:43 | 48.39521 | 9.19085 | 34846 ft | 423 kts | 150° |
| 2026-05-05 10:43 | 48.34611 | 9.23984 | 34848 ft | 423 kts | 150° |
| 2026-05-05 10:44 | 48.29739 | 9.28848 | 34843 ft | 423 kts | 150° |
| 2026-05-05 10:44 | 48.24832 | 9.33744 | 34840 ft | 423 kts | 150° |
| 2026-05-05 10:45 | 48.19884 | 9.38658 | 34848 ft | 423 kts | 150° |
| 2026-05-05 10:45 | 48.15000 | 9.43484 | 34850 ft | 423 kts | 150° |
| 2026-05-05 10:46 | 48.10083 | 9.48333 | 34846 ft | 423 kts | 150° |
| 2026-05-05 10:46 | 48.05963 | 9.52403 | 34845 ft | 423 kts | 150° |
| 2026-05-05 10:47 | 48.01047 | 9.57246 | 34846 ft | 423 kts | 150° |
| 2026-05-05 10:47 | 47.96174 | 9.62186 | 34851 ft | 424 kts | 149° |
| 2026-05-05 10:48 | 47.91322 | 9.67199 | 34853 ft | 424 kts | 149° |
| 2026-05-05 10:48 | 47.89054 | 9.69533 | 34855 ft | 424 kts | 149° |
| 2026-05-05 10:49 | 47.84187 | 9.74515 | 34854 ft | 424 kts | 149° |
| 2026-05-05 10:49 | 47.79305 | 9.79470 | 34858 ft | 425 kts | 150° |
| 2026-05-05 10:50 | 47.74384 | 9.84448 | 34854 ft | 425 kts | 150° |
| 2026-05-05 10:50 | 47.69519 | 9.89358 | 34850 ft | 426 kts | 150° |
| 2026-05-05 10:51 | 47.64620 | 9.94303 | 34849 ft | 426 kts | 150° |
| 2026-05-05 10:51 | 47.59716 | 9.99251 | 34849 ft | 427 kts | 150° |
| 2026-05-05 10:52 | 47.54802 | 10.04191 | 34845 ft | 427 kts | 150° |
| 2026-05-05 10:52 | 47.49876 | 10.09122 | 34841 ft | 428 kts | 150° |
| 2026-05-05 10:53 | 47.44942 | 10.14057 | 34841 ft | 428 kts | 150° |
| 2026-05-05 10:53 | 47.39998 | 10.18978 | 34840 ft | 429 kts | 150° |
| 2026-05-05 10:54 | 47.35046 | 10.23903 | 34846 ft | 429 kts | 150° |
| 2026-05-05 10:54 | 47.30092 | 10.28827 | 34849 ft | 430 kts | 150° |
| 2026-05-05 10:55 | 47.25121 | 10.33747 | 34857 ft | 430 kts | 150° |
| 2026-05-05 10:55 | 47.20148 | 10.38658 | 34865 ft | 431 kts | 150° |
| 2026-05-05 10:56 | 47.15171 | 10.43577 | 34870 ft | 431 kts | 150° |
| 2026-05-05 10:56 | 47.10183 | 10.48481 | 34875 ft | 432 kts | 150° |
| 2026-05-05 10:57 | 47.05052 | 10.52994 | 34880 ft | 426 kts | 161° |
| 2026-05-05 10:57 | 46.99458 | 10.55710 | 34890 ft | 424 kts | 166° |
| 2026-05-05 10:58 | 46.93816 | 10.58251 | 34896 ft | 424 kts | 166° |
| 2026-05-05 10:58 | 46.88168 | 10.60811 | 34910 ft | 425 kts | 166° |
| 2026-05-05 10:59 | 46.82515 | 10.63360 | 34922 ft | 426 kts | 166° |
| 2026-05-05 10:59 | 46.76848 | 10.65893 | 34940 ft | 426 kts | 166° |
| 2026-05-05 11:00 | 46.71227 | 10.68725 | 34952 ft | 431 kts | 158° |
| 2026-05-05 11:00 | 46.65847 | 10.72601 | 34967 ft | 432 kts | 158° |
| 2026-05-05 11:01 | 46.60475 | 10.76456 | 34972 ft | 433 kts | 158° |
| 2026-05-05 11:01 | 46.55032 | 10.80338 | 35002 ft | 434 kts | 158° |
| 2026-05-05 11:02 | 46.49615 | 10.84192 | 35025 ft | 434 kts | 158° |
| 2026-05-05 11:02 | 46.44207 | 10.88039 | 35031 ft | 436 kts | 158° |
| 2026-05-05 11:03 | 46.38764 | 10.91911 | 35039 ft | 436 kts | 158° |
| 2026-05-05 11:03 | 46.33303 | 10.95772 | 35057 ft | 437 kts | 158° |
| 2026-05-05 11:04 | 46.27836 | 10.99635 | 35061 ft | 438 kts | 158° |
| 2026-05-05 11:04 | 46.22359 | 11.03500 | 35059 ft | 438 kts | 158° |
| 2026-05-05 11:05 | 46.16874 | 11.07363 | 35055 ft | 439 kts | 158° |
| 2026-05-05 11:05 | 46.11383 | 11.11220 | 35036 ft | 439 kts | 158° |
| 2026-05-05 11:06 | 46.05930 | 11.15222 | 35030 ft | 443 kts | 152° |
| 2026-05-05 11:06 | 46.01275 | 11.21175 | 35018 ft | 455 kts | 133° |
| 2026-05-05 11:07 | 45.97499 | 11.28507 | 35007 ft | 457 kts | 131° |
| 2026-05-05 11:07 | 45.93711 | 11.35853 | 35005 ft | 458 kts | 131° |
| 2026-05-05 11:08 | 45.89902 | 11.43190 | 35011 ft | 458 kts | 131° |
| 2026-05-05 11:08 | 45.86107 | 11.50470 | 35013 ft | 459 kts | 131° |
| 2026-05-05 11:09 | 45.82289 | 11.57795 | 35014 ft | 459 kts | 131° |
| 2026-05-05 11:09 | 45.78455 | 11.65128 | 35015 ft | 459 kts | 131° |
| 2026-05-05 11:10 | 45.74622 | 11.72440 | 35017 ft | 459 kts | 131° |
| 2026-05-05 11:10 | 45.70776 | 11.79744 | 35025 ft | 459 kts | 131° |
| 2026-05-05 11:11 | 45.66931 | 11.87039 | 35027 ft | 459 kts | 131° |
| 2026-05-05 11:11 | 45.63076 | 11.94335 | 35031 ft | 460 kts | 131° |
| 2026-05-05 11:12 | 45.59218 | 12.01620 | 35028 ft | 459 kts | 131° |
| 2026-05-05 11:12 | 45.55363 | 12.08880 | 35004 ft | 460 kts | 131° |
| 2026-05-05 11:13 | 45.51485 | 12.16144 | 35000 ft | 460 kts | 131° |
| 2026-05-05 11:13 | 45.47614 | 12.23402 | 35006 ft | 460 kts | 131° |
| 2026-05-05 11:14 | 45.43723 | 12.30660 | 35006 ft | 461 kts | 131° |
| 2026-05-05 11:14 | 45.39835 | 12.37909 | 35002 ft | 461 kts | 131° |
| 2026-05-05 11:15 | 45.35940 | 12.45164 | 35001 ft | 462 kts | 131° |
| 2026-05-05 11:15 | 45.32096 | 12.52413 | 34996 ft | 463 kts | 129° |
| 2026-05-05 11:16 | 45.28502 | 12.60125 | 34998 ft | 466 kts | 126° |
| 2026-05-05 11:16 | 45.25096 | 12.67890 | 34995 ft | 466 kts | 126° |
| 2026-05-05 11:17 | 45.21615 | 12.75649 | 34997 ft | 466 kts | 127° |
| 2026-05-05 11:17 | 45.18057 | 12.83337 | 35000 ft | 466 kts | 127° |
| 2026-05-05 11:18 | 45.14476 | 12.91005 | 34999 ft | 467 kts | 127° |
| 2026-05-05 11:18 | 45.10901 | 12.98685 | 35004 ft | 467 kts | 127° |
| 2026-05-05 11:19 | 45.07329 | 13.06377 | 35003 ft | 467 kts | 127° |
| 2026-05-05 11:19 | 45.03760 | 13.14054 | 35002 ft | 468 kts | 127° |
| 2026-05-05 11:20 | 45.00173 | 13.21732 | 35006 ft | 468 kts | 127° |
| 2026-05-05 11:20 | 44.96575 | 13.29404 | 35011 ft | 469 kts | 127° |
| 2026-05-05 11:21 | 44.92964 | 13.37081 | 35010 ft | 469 kts | 127° |
| 2026-05-05 11:21 | 44.89349 | 13.44749 | 35018 ft | 469 kts | 127° |
| 2026-05-05 11:22 | 44.85729 | 13.52404 | 35026 ft | 470 kts | 127° |
| 2026-05-05 11:22 | 44.81992 | 13.59956 | 35031 ft | 469 kts | 129° |
| 2026-05-05 11:23 | 44.78085 | 13.67223 | 35035 ft | 468 kts | 131° |
| 2026-05-05 11:23 | 44.74104 | 13.74489 | 35037 ft | 468 kts | 130° |
| 2026-05-05 11:24 | 44.70156 | 13.81787 | 35030 ft | 469 kts | 130° |
| 2026-05-05 11:24 | 44.66234 | 13.89106 | 35040 ft | 469 kts | 130° |
| 2026-05-05 11:25 | 44.62301 | 13.96433 | 35038 ft | 469 kts | 130° |
| 2026-05-05 11:25 | 44.58361 | 14.03741 | 35036 ft | 470 kts | 130° |
| 2026-05-05 11:26 | 44.54410 | 14.11039 | 35030 ft | 470 kts | 130° |
| 2026-05-05 11:26 | 44.50455 | 14.18320 | 35039 ft | 470 kts | 130° |
| 2026-05-05 11:27 | 44.46485 | 14.25611 | 35037 ft | 470 kts | 130° |
| 2026-05-05 11:27 | 44.42524 | 14.32883 | 35035 ft | 469 kts | 130° |
| 2026-05-05 11:28 | 44.38589 | 14.40086 | 35035 ft | 469 kts | 130° |
| 2026-05-05 11:28 | 44.34618 | 14.47330 | 35033 ft | 470 kts | 130° |
| 2026-05-05 11:29 | 44.30631 | 14.54576 | 35032 ft | 470 kts | 130° |
| 2026-05-05 11:29 | 44.26641 | 14.61813 | 35032 ft | 470 kts | 130° |
| 2026-05-05 11:30 | 44.22648 | 14.69051 | 35029 ft | 471 kts | 130° |
| 2026-05-05 11:30 | 44.18644 | 14.76289 | 35038 ft | 471 kts | 130° |
| 2026-05-05 11:31 | 44.15312 | 14.82291 | 35038 ft | 471 kts | 130° |
| 2026-05-05 11:31 | 44.10645 | 14.90663 | 35045 ft | 471 kts | 130° |
| 2026-05-05 11:32 | 44.07277 | 14.96698 | 35055 ft | 471 kts | 130° |
| 2026-05-05 11:32 | 44.03257 | 15.03888 | 35055 ft | 471 kts | 130° |
| 2026-05-05 11:33 | 43.99235 | 15.11073 | 35055 ft | 471 kts | 130° |
| 2026-05-05 11:33 | 43.95242 | 15.18193 | 35057 ft | 471 kts | 130° |
| 2026-05-05 11:34 | 43.91202 | 15.25355 | 35058 ft | 471 kts | 130° |
| 2026-05-05 11:34 | 43.87163 | 15.32503 | 35060 ft | 471 kts | 130° |
| 2026-05-05 11:35 | 43.83126 | 15.39641 | 35055 ft | 470 kts | 130° |
| 2026-05-05 11:35 | 43.79082 | 15.46763 | 35049 ft | 471 kts | 131° |
| 2026-05-05 11:36 | 43.75037 | 15.53889 | 35052 ft | 471 kts | 131° |
| 2026-05-05 11:36 | 43.70984 | 15.61007 | 35050 ft | 471 kts | 131° |
| 2026-05-05 11:37 | 43.66920 | 15.68111 | 35055 ft | 471 kts | 131° |
| 2026-05-05 11:37 | 43.62856 | 15.75199 | 35057 ft | 471 kts | 131° |
| 2026-05-05 11:38 | 43.58782 | 15.82292 | 35054 ft | 471 kts | 131° |
| 2026-05-05 11:38 | 43.54707 | 15.89375 | 35067 ft | 471 kts | 131° |
| 2026-05-05 11:39 | 43.50627 | 15.96450 | 35065 ft | 471 kts | 131° |
| 2026-05-05 11:39 | 43.46536 | 16.03511 | 35069 ft | 471 kts | 131° |
| 2026-05-05 11:40 | 43.42467 | 16.10520 | 35079 ft | 471 kts | 131° |
| 2026-05-05 11:40 | 43.38376 | 16.17567 | 35072 ft | 471 kts | 131° |
| 2026-05-05 11:41 | 43.34276 | 16.24598 | 35082 ft | 471 kts | 131° |
| 2026-05-05 11:41 | 43.30169 | 16.31617 | 35072 ft | 471 kts | 131° |
| 2026-05-05 11:42 | 43.26056 | 16.38634 | 35080 ft | 471 kts | 131° |
| 2026-05-05 11:42 | 43.21953 | 16.45648 | 35076 ft | 471 kts | 131° |
| 2026-05-05 11:43 | 43.17843 | 16.52655 | 35074 ft | 472 kts | 131° |
| 2026-05-05 11:43 | 43.13718 | 16.59643 | 35070 ft | 472 kts | 131° |
| 2026-05-05 11:44 | 43.09581 | 16.66623 | 35058 ft | 473 kts | 131° |
| 2026-05-05 11:44 | 43.05433 | 16.73612 | 35073 ft | 474 kts | 131° |
| 2026-05-05 11:45 | 43.01276 | 16.80610 | 35060 ft | 475 kts | 131° |
| 2026-05-05 11:45 | 42.97099 | 16.87627 | 35075 ft | 477 kts | 131° |
| 2026-05-05 11:46 | 42.92908 | 16.94657 | 35077 ft | 478 kts | 131° |
| 2026-05-05 11:46 | 42.88704 | 17.01685 | 35075 ft | 479 kts | 132° |
| 2026-05-05 11:47 | 42.84479 | 17.08738 | 35077 ft | 480 kts | 132° |
| 2026-05-05 11:47 | 42.80245 | 17.15793 | 35078 ft | 482 kts | 132° |
| 2026-05-05 11:48 | 42.73887 | 17.26342 | 35081 ft | 483 kts | 133° |
| 2026-05-05 11:48 | 42.69584 | 17.33447 | 35085 ft | 484 kts | 133° |
| 2026-05-05 11:49 | 42.65295 | 17.40522 | 35085 ft | 485 kts | 133° |
| 2026-05-05 11:49 | 42.61018 | 17.47546 | 35087 ft | 486 kts | 133° |
| 2026-05-05 11:50 | 42.56704 | 17.54622 | 35089 ft | 487 kts | 133° |
| 2026-05-05 11:50 | 42.52418 | 17.61752 | 35089 ft | 489 kts | 131° |
| 2026-05-05 11:51 | 42.48327 | 17.69131 | 35094 ft | 490 kts | 129° |
| 2026-05-05 11:51 | 42.44297 | 17.76595 | 35095 ft | 491 kts | 129° |
| 2026-05-05 11:52 | 42.40184 | 17.84063 | 35099 ft | 492 kts | 130° |
| 2026-05-05 11:52 | 42.36051 | 17.91436 | 35102 ft | 492 kts | 130° |
| 2026-05-05 11:53 | 42.31897 | 17.98800 | 35107 ft | 493 kts | 130° |
| 2026-05-05 11:53 | 42.27748 | 18.06179 | 35104 ft | 494 kts | 130° |
| 2026-05-05 11:54 | 42.23619 | 18.13528 | 35109 ft | 494 kts | 130° |
| 2026-05-05 11:54 | 42.19455 | 18.20919 | 35105 ft | 495 kts | 130° |
| 2026-05-05 11:55 | 42.15283 | 18.28316 | 35106 ft | 496 kts | 130° |
| 2026-05-05 11:55 | 42.11091 | 18.35714 | 35106 ft | 497 kts | 130° |
| 2026-05-05 11:56 | 42.06880 | 18.43125 | 35108 ft | 498 kts | 130° |
| 2026-05-05 11:56 | 42.02628 | 18.50501 | 35111 ft | 498 kts | 134° |
| 2026-05-05 11:57 | 41.97549 | 18.56728 | 35111 ft | 492 kts | 146° |
| 2026-05-05 11:57 | 41.92113 | 18.62357 | 35108 ft | 494 kts | 146° |
| 2026-05-05 11:58 | 41.86671 | 18.68014 | 35113 ft | 495 kts | 146° |
| 2026-05-05 11:58 | 41.81259 | 18.73647 | 35115 ft | 496 kts | 146° |
| 2026-05-05 11:59 | 41.75783 | 18.79307 | 35114 ft | 497 kts | 146° |
| 2026-05-05 11:59 | 41.70292 | 18.84959 | 35116 ft | 498 kts | 146° |
| 2026-05-05 12:00 | 41.64785 | 18.90612 | 35115 ft | 499 kts | 146° |
| 2026-05-05 12:00 | 41.59259 | 18.96276 | 35116 ft | 500 kts | 146° |
| 2026-05-05 12:01 | 41.53727 | 19.01949 | 35117 ft | 502 kts | 146° |
| 2026-05-05 12:01 | 41.48171 | 19.07598 | 35120 ft | 501 kts | 149° |
| 2026-05-05 12:02 | 41.42082 | 19.11853 | 35119 ft | 491 kts | 166° |
| 2026-05-05 12:02 | 41.35656 | 19.14945 | 35120 ft | 491 kts | 165° |
| 2026-05-05 12:03 | 41.29228 | 19.18084 | 35120 ft | 492 kts | 165° |
| 2026-05-05 12:03 | 41.22805 | 19.21232 | 35119 ft | 492 kts | 165° |
| 2026-05-05 12:04 | 41.16364 | 19.24372 | 35121 ft | 492 kts | 165° |
| 2026-05-05 12:04 | 41.09930 | 19.27490 | 35123 ft | 493 kts | 165° |
| 2026-05-05 12:05 | 41.03486 | 19.30601 | 35119 ft | 493 kts | 165° |
| 2026-05-05 12:05 | 40.97039 | 19.33721 | 35114 ft | 493 kts | 165° |
| 2026-05-05 12:06 | 40.90586 | 19.36832 | 35111 ft | 494 kts | 165° |
| 2026-05-05 12:06 | 40.84126 | 19.39941 | 35110 ft | 494 kts | 165° |
| 2026-05-05 12:07 | 40.77658 | 19.43044 | 35105 ft | 495 kts | 165° |
| 2026-05-05 12:07 | 40.71178 | 19.46142 | 35105 ft | 495 kts | 165° |
| 2026-05-05 12:08 | 40.64732 | 19.49214 | 35102 ft | 496 kts | 165° |
| 2026-05-05 12:08 | 40.58233 | 19.52313 | 35102 ft | 497 kts | 165° |
| 2026-05-05 12:09 | 40.51722 | 19.55421 | 35101 ft | 497 kts | 165° |
| 2026-05-05 12:09 | 40.45214 | 19.58510 | 35107 ft | 498 kts | 165° |
| 2026-05-05 12:10 | 40.38692 | 19.61591 | 35109 ft | 498 kts | 165° |
| 2026-05-05 12:10 | 40.32182 | 19.64664 | 34785 ft | 495 kts | 165° |
| 2026-05-05 12:11 | 40.28927 | 19.66197 | 33181 ft | 502 kts | 165° |
| 2026-05-05 12:11 | 40.25605 | 19.67755 | 31408 ft | 511 kts | 164° |
| 2026-05-05 12:11 | 40.22237 | 19.69334 | 29717 ft | 517 kts | 164° |
| 2026-05-05 12:11 | 40.18858 | 19.70925 | 28218 ft | 515 kts | 163° |
| 2026-05-05 12:12 | 40.15523 | 19.72501 | 27036 ft | 504 kts | 163° |
| 2026-05-05 12:12 | 40.12245 | 19.74048 | 25723 ft | 497 kts | 162° |
| 2026-05-05 12:12 | 40.09012 | 19.75568 | 24481 ft | 490 kts | 162° |
| 2026-05-05 12:12 | 40.05825 | 19.77060 | 23211 ft | 483 kts | 162° |
| 2026-05-05 12:13 | 40.02698 | 19.78522 | 22212 ft | 470 kts | 162° |
| 2026-05-05 12:13 | 39.99630 | 19.79955 | 21376 ft | 469 kts | 161° |
| 2026-05-05 12:13 | 39.96740 | 19.81301 | 20558 ft | 469 kts | 161° |
| 2026-05-05 12:13 | 39.93671 | 19.82728 | 19699 ft | 468 kts | 161° |
| 2026-05-05 12:14 | 39.91630 | 19.83675 | 19159 ft | 467 kts | 161° |
| 2026-05-05 12:14 | 39.88576 | 19.85083 | 18332 ft | 465 kts | 163° |
| 2026-05-05 12:14 | 39.85416 | 19.85841 | 17505 ft | 459 kts | 180° |
| 2026-05-05 12:14 | 39.82274 | 19.85446 | 16655 ft | 452 kts | 197° |
| 2026-05-05 12:15 | 39.79440 | 19.83849 | 16064 ft | 439 kts | 214° |
| 2026-05-05 12:15 | 39.77132 | 19.81378 | 14914 ft | 424 kts | 231° |
| 2026-05-05 12:15 | 39.75458 | 19.78321 | 14223 ft | 411 kts | 237° |
| 2026-05-05 12:15 | 39.73684 | 19.75424 | 13537 ft | 409 kts | 229° |
| 2026-05-05 12:16 | 39.71711 | 19.72777 | 12879 ft | 406 kts | 225° |
| 2026-05-05 12:16 | 39.69639 | 19.70297 | 12217 ft | 402 kts | 222° |
| 2026-05-05 12:16 | 39.67491 | 19.67994 | 11575 ft | 399 kts | 218° |
| 2026-05-05 12:16 | 39.65298 | 19.65950 | 11317 ft | 373 kts | 214° |
| 2026-05-05 12:17 | 39.63181 | 19.64254 | 11174 ft | 344 kts | 210° |
| 2026-05-05 12:17 | 39.61142 | 19.62851 | 11060 ft | 319 kts | 207° |
| 2026-05-05 12:17 | 39.59174 | 19.61682 | 10706 ft | 306 kts | 203° |
| 2026-05-05 12:17 | 39.57217 | 19.60693 | 10433 ft | 300 kts | 200° |
| 2026-05-05 12:18 | 39.55237 | 19.59850 | 10199 ft | 299 kts | 197° |
| 2026-05-05 12:18 | 39.53235 | 19.59155 | 10016 ft | 297 kts | 193° |
| 2026-05-05 12:18 | 39.51207 | 19.58599 | 9893 ft | 298 kts | 190° |
| 2026-05-05 12:18 | 39.49160 | 19.58180 | 9765 ft | 296 kts | 187° |
| 2026-05-05 12:19 | 39.47111 | 19.57904 | 9615 ft | 296 kts | 184° |
| 2026-05-05 12:19 | 39.45058 | 19.57822 | 9498 ft | 295 kts | 174° |
| 2026-05-05 12:19 | 39.43103 | 19.58565 | 9212 ft | 295 kts | 150° |
| 2026-05-05 12:19 | 39.41567 | 19.60244 | 8777 ft | 293 kts | 126° |
| 2026-05-05 12:20 | 39.40649 | 19.62577 | 8300 ft | 293 kts | 103° |
| 2026-05-05 12:20 | 39.40372 | 19.65146 | 7991 ft | 287 kts | 95° |
| 2026-05-05 12:20 | 39.40171 | 19.67709 | 7596 ft | 286 kts | 95° |
| 2026-05-05 12:20 | 39.39971 | 19.70259 | 7214 ft | 284 kts | 95° |
| 2026-05-05 12:21 | 39.39779 | 19.72723 | 6854 ft | 283 kts | 95° |
| 2026-05-05 12:21 | 39.39752 | 19.75152 | 6478 ft | 281 kts | 89° |
| 2026-05-05 12:21 | 39.39789 | 19.77675 | 6065 ft | 280 kts | 89° |
| 2026-05-05 12:21 | 39.39824 | 19.80188 | 5649 ft | 279 kts | 89° |
| 2026-05-05 12:22 | 39.39858 | 19.82690 | 5165 ft | 277 kts | 90° |
| 2026-05-05 12:22 | 39.39889 | 19.85187 | 4413 ft | 278 kts | 90° |
| 2026-05-05 12:22 | 39.39994 | 19.87647 | 3947 ft | 267 kts | 79° |
| 2026-05-05 12:22 | 39.40466 | 19.89874 | 3774 ft | 247 kts | 73° |
| 2026-05-05 12:23 | 39.40936 | 19.91927 | 3656 ft | 231 kts | 74° |
| 2026-05-05 12:23 | 39.41380 | 19.93891 | 3554 ft | 223 kts | 74° |
| 2026-05-05 12:23 | 39.41857 | 19.95750 | 3450 ft | 214 kts | 60° |
| 2026-05-05 12:23 | 39.42905 | 19.96998 | 3363 ft | 204 kts | 19° |
| 2026-05-05 12:24 | 39.44265 | 19.97104 | 3108 ft | 197 kts | 345° |
| 2026-05-05 12:24 | 39.45578 | 19.96614 | 2799 ft | 196 kts | 342° |
| 2026-05-05 12:24 | 39.46893 | 19.96114 | 2512 ft | 195 kts | 342° |
| 2026-05-05 12:24 | 39.48160 | 19.95637 | 2251 ft | 184 kts | 342° |
| 2026-05-05 12:25 | 39.49359 | 19.95187 | 2013 ft | 175 kts | 341° |
| 2026-05-05 12:25 | 39.50493 | 19.94760 | 1790 ft | 166 kts | 341° |
| 2026-05-05 12:25 | 39.51548 | 19.94363 | 1580 ft | 153 kts | 341° |
| 2026-05-05 12:25 | 39.52555 | 19.93961 | 1357 ft | 150 kts | 338° |
| 2026-05-05 12:26 | 39.53520 | 19.93498 | 1185 ft | 147 kts | 335° |
| 2026-05-05 12:26 | 39.54458 | 19.92979 | 1073 ft | 148 kts | 335° |
| 2026-05-05 12:26 | 39.55422 | 19.92524 | 820 ft | 148 kts | 340° |
| 2026-05-05 12:26 | 39.56413 | 19.92164 | 615 ft | 148 kts | 347° |
| 2026-05-05 12:27 | 39.57425 | 19.91912 | 430 ft | 147 kts | 351° |
| 2026-05-05 12:27 | 39.58422 | 19.91672 | 226 ft | 147 kts | 351° |
| 2026-05-05 12:27 | 39.59435 | 19.91408 | 28 ft | 145 kts | 351° |
| 2026-05-05 12:27 | 39.60302 | 19.91185 | 22 ft | 99 kts | 348° |
| 2026-05-05 12:28 | 39.60787 | 19.91061 | 20 ft | 55 kts | 348° |
| 2026-05-05 12:28 | 39.61024 | 19.91023 | 19 ft | 16 kts | 36° |
| 2026-05-05 12:28 | 39.61063 | 19.91123 | 19 ft | 10 kts | 84° |
| 2026-05-05 12:28 | 39.61010 | 19.91141 | 19 ft | 11 kts | 179° |
| 2026-05-05 12:29 | 39.60912 | 19.91157 | 19 ft | 18 kts | 171° |
| 2026-05-05 12:29 | 39.60788 | 19.91194 | 18 ft | 15 kts | 169° |
| 2026-05-05 12:29 | 39.60706 | 19.91215 | 20 ft | 8 kts | 167° |
| 2026-05-05 12:29 | 39.60691 | 19.91249 | 18 ft | 5 kts | 94° |
| 2026-05-05 12:30 | 39.60701 | 19.91318 | 20 ft | 6 kts | 79° |
| 2026-05-05 12:30 | 39.60706 | 19.91350 | 18 ft | 2 kts | 79° |
| 2026-05-05 12:30 | 39.60707 | 19.91358 | 18 ft | 0 kts | 79° |